sensor_id;sensor_type;location;lat;lon;timestamp;P1;durP1;ratioP1;P2;durP2;ratioP2
16442;SDS011;8331;51.654;14.376;2023-07-02T00:00:19;2.20;;;2.00;;
16442;SDS011;8331;51.654;14.376;2023-07-02T00:02:46;2.03;;;1.93;;
16442;SDS011;8331;51.654;14.376;2023-07-02T00:05:12;2.93;;;1.97;;
16442;SDS011;8331;51.654;14.376;2023-07-02T00:07:39;1.73;;;1.67;;
16442;SDS011;8331;51.654;14.376;2023-07-02T00:10:06;2.10;;;2.00;;
16442;SDS011;8331;51.654;14.376;2023-07-02T00:12:33;3.17;;;2.37;;
16442;SDS011;8331;51.654;14.376;2023-07-02T00:15:00;2.73;;;2.03;;
16442;SDS011;8331;51.654;14.376;2023-07-02T00:17:26;2.80;;;2.13;;
16442;SDS011;8331;51.654;14.376;2023-07-02T00:19:53;3.53;;;2.20;;
16442;SDS011;8331;51.654;14.376;2023-07-02T00:22:20;1.83;;;1.73;;
16442;SDS011;8331;51.654;14.376;2023-07-02T00:24:47;2.23;;;2.03;;
16442;SDS011;8331;51.654;14.376;2023-07-02T00:27:14;2.03;;;1.93;;
16442;SDS011;8331;51.654;14.376;2023-07-02T00:29:40;2.07;;;1.97;;
16442;SDS011;8331;51.654;14.376;2023-07-02T00:32:07;2.30;;;2.00;;
16442;SDS011;8331;51.654;14.376;2023-07-02T00:34:34;2.27;;;1.90;;
16442;SDS011;8331;51.654;14.376;2023-07-02T00:37:00;2.13;;;2.03;;
16442;SDS011;8331;51.654;14.376;2023-07-02T00:39:27;3.03;;;1.87;;
16442;SDS011;8331;51.654;14.376;2023-07-02T00:41:54;2.43;;;2.07;;
16442;SDS011;8331;51.654;14.376;2023-07-02T00:44:26;1.73;;;1.63;;
16442;SDS011;8331;51.654;14.376;2023-07-02T00:46:52;2.30;;;2.10;;
16442;SDS011;8331;51.654;14.376;2023-07-02T00:49:19;2.97;;;2.00;;
16442;SDS011;8331;51.654;14.376;2023-07-02T00:51:46;2.50;;;2.20;;
16442;SDS011;8331;51.654;14.376;2023-07-02T00:54:13;2.07;;;1.97;;
16442;SDS011;8331;51.654;14.376;2023-07-02T00:56:39;2.70;;;2.00;;
16442;SDS011;8331;51.654;14.376;2023-07-02T00:59:06;2.33;;;2.13;;
16442;SDS011;8331;51.654;14.376;2023-07-02T01:01:33;2.07;;;1.97;;
16442;SDS011;8331;51.654;14.376;2023-07-02T01:04:05;2.27;;;2.10;;
16442;SDS011;8331;51.654;14.376;2023-07-02T01:06:34;2.07;;;1.97;;
16442;SDS011;8331;51.654;14.376;2023-07-02T01:09:02;2.13;;;1.93;;
16442;SDS011;8331;51.654;14.376;2023-07-02T01:11:50;2.90;;;1.83;;
16442;SDS011;8331;51.654;14.376;2023-07-02T01:16:50;2.10;;;2.00;;
16442;SDS011;8331;51.654;14.376;2023-07-02T01:19:28;2.23;;;2.10;;
16442;SDS011;8331;51.654;14.376;2023-07-02T01:21:59;3.03;;;2.13;;
16442;SDS011;8331;51.654;14.376;2023-07-02T01:24:26;3.40;;;2.10;;
16442;SDS011;8331;51.654;14.376;2023-07-02T01:26:53;2.47;;;2.03;;
16442;SDS011;8331;51.654;14.376;2023-07-02T01:29:20;2.00;;;1.90;;
16442;SDS011;8331;51.654;14.376;2023-07-02T01:31:47;2.03;;;1.93;;
16442;SDS011;8331;51.654;14.376;2023-07-02T01:34:14;1.90;;;1.80;;
16442;SDS011;8331;51.654;14.376;2023-07-02T01:36:41;2.47;;;2.10;;
16442;SDS011;8331;51.654;14.376;2023-07-02T01:39:07;2.53;;;2.33;;
16442;SDS011;8331;51.654;14.376;2023-07-02T01:41:42;2.27;;;2.00;;
16442;SDS011;8331;51.654;14.376;2023-07-02T01:44:08;3.33;;;2.10;;
16442;SDS011;8331;51.654;14.376;2023-07-02T01:46:35;2.20;;;2.00;;
16442;SDS011;8331;51.654;14.376;2023-07-02T01:49:02;2.47;;;2.23;;
16442;SDS011;8331;51.654;14.376;2023-07-02T01:51:28;2.20;;;2.10;;
16442;SDS011;8331;51.654;14.376;2023-07-02T01:53:55;2.00;;;1.90;;
16442;SDS011;8331;51.654;14.376;2023-07-02T01:56:22;3.23;;;2.50;;
16442;SDS011;8331;51.654;14.376;2023-07-02T01:58:48;1.90;;;1.80;;
16442;SDS011;8331;51.654;14.376;2023-07-02T02:01:15;2.47;;;2.30;;
16442;SDS011;8331;51.654;14.376;2023-07-02T02:03:42;2.40;;;2.20;;
16442;SDS011;8331;51.654;14.376;2023-07-02T02:06:09;3.73;;;2.33;;
16442;SDS011;8331;51.654;14.376;2023-07-02T02:08:36;2.30;;;2.10;;
16442;SDS011;8331;51.654;14.376;2023-07-02T02:11:02;2.53;;;2.03;;
16442;SDS011;8331;51.654;14.376;2023-07-02T02:13:29;2.53;;;2.30;;
16442;SDS011;8331;51.654;14.376;2023-07-02T02:15:57;2.70;;;2.40;;
16442;SDS011;8331;51.654;14.376;2023-07-02T02:18:23;2.23;;;2.03;;
16442;SDS011;8331;51.654;14.376;2023-07-02T02:20:51;2.30;;;2.10;;
16442;SDS011;8331;51.654;14.376;2023-07-02T02:23:18;2.33;;;2.03;;
16442;SDS011;8331;51.654;14.376;2023-07-02T02:25:44;2.77;;;2.10;;
16442;SDS011;8331;51.654;14.376;2023-07-02T02:28:11;2.17;;;2.07;;
16442;SDS011;8331;51.654;14.376;2023-07-02T02:30:38;2.40;;;2.20;;
16442;SDS011;8331;51.654;14.376;2023-07-02T02:33:04;4.43;;;2.13;;
16442;SDS011;8331;51.654;14.376;2023-07-02T02:35:31;2.70;;;1.97;;
16442;SDS011;8331;51.654;14.376;2023-07-02T02:38:01;5.00;;;2.30;;
16442;SDS011;8331;51.654;14.376;2023-07-02T02:40:28;2.23;;;2.13;;
16442;SDS011;8331;51.654;14.376;2023-07-02T02:42:55;2.60;;;2.40;;
16442;SDS011;8331;51.654;14.376;2023-07-02T02:45:22;2.30;;;2.10;;
16442;SDS011;8331;51.654;14.376;2023-07-02T02:47:49;2.40;;;2.30;;
16442;SDS011;8331;51.654;14.376;2023-07-02T02:50:16;2.80;;;2.60;;
16442;SDS011;8331;51.654;14.376;2023-07-02T02:52:42;2.87;;;2.50;;
16442;SDS011;8331;51.654;14.376;2023-07-02T02:55:10;3.37;;;2.30;;
16442;SDS011;8331;51.654;14.376;2023-07-02T02:57:39;3.07;;;2.77;;
16442;SDS011;8331;51.654;14.376;2023-07-02T03:00:06;2.10;;;2.00;;
16442;SDS011;8331;51.654;14.376;2023-07-02T03:02:33;2.60;;;2.40;;
16442;SDS011;8331;51.654;14.376;2023-07-02T03:05:00;2.50;;;2.40;;
16442;SDS011;8331;51.654;14.376;2023-07-02T03:07:29;3.00;;;2.80;;
16442;SDS011;8331;51.654;14.376;2023-07-02T03:09:56;3.53;;;2.40;;
16442;SDS011;8331;51.654;14.376;2023-07-02T03:12:23;2.83;;;2.60;;
16442;SDS011;8331;51.654;14.376;2023-07-02T03:14:52;4.17;;;2.50;;
16442;SDS011;8331;51.654;14.376;2023-07-02T03:17:21;2.60;;;2.40;;
16442;SDS011;8331;51.654;14.376;2023-07-02T03:19:48;3.77;;;2.37;;
16442;SDS011;8331;51.654;14.376;2023-07-02T03:22:14;2.80;;;2.60;;
16442;SDS011;8331;51.654;14.376;2023-07-02T03:24:41;3.03;;;2.40;;
16442;SDS011;8331;51.654;14.376;2023-07-02T03:27:08;2.53;;;2.40;;
16442;SDS011;8331;51.654;14.376;2023-07-02T03:29:35;2.60;;;2.40;;
16442;SDS011;8331;51.654;14.376;2023-07-02T03:32:01;2.87;;;2.50;;
16442;SDS011;8331;51.654;14.376;2023-07-02T03:34:28;2.77;;;2.57;;
16442;SDS011;8331;51.654;14.376;2023-07-02T03:36:55;3.87;;;2.73;;
16442;SDS011;8331;51.654;14.376;2023-07-02T03:39:21;2.53;;;2.33;;
16442;SDS011;8331;51.654;14.376;2023-07-02T03:41:48;2.60;;;2.50;;
16442;SDS011;8331;51.654;14.376;2023-07-02T03:44:15;2.40;;;2.20;;
16442;SDS011;8331;51.654;14.376;2023-07-02T03:46:41;3.27;;;2.40;;
16442;SDS011;8331;51.654;14.376;2023-07-02T03:49:08;2.70;;;2.50;;
16442;SDS011;8331;51.654;14.376;2023-07-02T03:51:35;2.50;;;2.30;;
16442;SDS011;8331;51.654;14.376;2023-07-02T03:54:01;2.40;;;2.20;;
16442;SDS011;8331;51.654;14.376;2023-07-02T03:56:28;2.67;;;2.50;;
16442;SDS011;8331;51.654;14.376;2023-07-02T03:58:55;2.53;;;2.33;;
16442;SDS011;8331;51.654;14.376;2023-07-02T04:01:21;2.60;;;2.50;;
16442;SDS011;8331;51.654;14.376;2023-07-02T04:03:48;2.67;;;2.57;;
16442;SDS011;8331;51.654;14.376;2023-07-02T04:06:16;2.67;;;2.47;;
16442;SDS011;8331;51.654;14.376;2023-07-02T04:08:43;2.80;;;2.60;;
16442;SDS011;8331;51.654;14.376;2023-07-02T04:11:10;2.70;;;2.60;;
16442;SDS011;8331;51.654;14.376;2023-07-02T04:13:38;3.20;;;3.00;;
16442;SDS011;8331;51.654;14.376;2023-07-02T04:16:05;2.70;;;2.60;;
16442;SDS011;8331;51.654;14.376;2023-07-02T04:18:31;2.80;;;2.70;;
16442;SDS011;8331;51.654;14.376;2023-07-02T04:20:58;3.13;;;2.83;;
16442;SDS011;8331;51.654;14.376;2023-07-02T04:23:25;3.23;;;3.03;;
16442;SDS011;8331;51.654;14.376;2023-07-02T04:25:52;3.13;;;2.93;;
16442;SDS011;8331;51.654;14.376;2023-07-02T04:28:39;4.37;;;2.87;;
16442;SDS011;8331;51.654;14.376;2023-07-02T04:31:05;3.13;;;2.90;;
16442;SDS011;8331;51.654;14.376;2023-07-02T04:33:32;4.30;;;2.80;;
16442;SDS011;8331;51.654;14.376;2023-07-02T04:36:03;3.47;;;2.90;;
16442;SDS011;8331;51.654;14.376;2023-07-02T04:38:29;3.10;;;2.90;;
16442;SDS011;8331;51.654;14.376;2023-07-02T04:40:56;4.30;;;2.70;;
16442;SDS011;8331;51.654;14.376;2023-07-02T04:43:32;3.23;;;2.83;;
16442;SDS011;8331;51.654;14.376;2023-07-02T04:46:00;3.03;;;2.83;;
16442;SDS011;8331;51.654;14.376;2023-07-02T04:48:27;2.90;;;2.70;;
16442;SDS011;8331;51.654;14.376;2023-07-02T04:50:54;3.30;;;2.97;;
16442;SDS011;8331;51.654;14.376;2023-07-02T04:53:20;2.90;;;2.70;;
16442;SDS011;8331;51.654;14.376;2023-07-02T04:55:47;3.57;;;3.27;;
16442;SDS011;8331;51.654;14.376;2023-07-02T04:58:14;3.30;;;3.00;;
16442;SDS011;8331;51.654;14.376;2023-07-02T05:00:40;3.60;;;3.30;;
16442;SDS011;8331;51.654;14.376;2023-07-02T05:03:07;3.53;;;3.27;;
16442;SDS011;8331;51.654;14.376;2023-07-02T05:05:34;3.13;;;3.00;;
16442;SDS011;8331;51.654;14.376;2023-07-02T05:08:00;3.60;;;3.27;;
16442;SDS011;8331;51.654;14.376;2023-07-02T05:10:27;3.50;;;3.20;;
16442;SDS011;8331;51.654;14.376;2023-07-02T05:12:54;4.47;;;3.13;;
16442;SDS011;8331;51.654;14.376;2023-07-02T05:15:20;3.50;;;3.20;;
16442;SDS011;8331;51.654;14.376;2023-07-02T05:17:47;3.27;;;2.97;;
16442;SDS011;8331;51.654;14.376;2023-07-02T05:20:13;3.07;;;2.87;;
16442;SDS011;8331;51.654;14.376;2023-07-02T05:22:40;2.90;;;2.70;;
16442;SDS011;8331;51.654;14.376;2023-07-02T05:25:07;2.77;;;2.67;;
16442;SDS011;8331;51.654;14.376;2023-07-02T05:27:33;3.10;;;2.73;;
16442;SDS011;8331;51.654;14.376;2023-07-02T05:30:00;2.80;;;2.60;;
16442;SDS011;8331;51.654;14.376;2023-07-02T05:32:27;3.10;;;2.90;;
16442;SDS011;8331;51.654;14.376;2023-07-02T05:34:53;2.70;;;2.50;;
16442;SDS011;8331;51.654;14.376;2023-07-02T05:37:20;3.07;;;2.77;;
16442;SDS011;8331;51.654;14.376;2023-07-02T05:39:47;3.67;;;2.60;;
16442;SDS011;8331;51.654;14.376;2023-07-02T05:42:14;2.77;;;2.50;;
16442;SDS011;8331;51.654;14.376;2023-07-02T05:44:41;2.70;;;2.50;;
16442;SDS011;8331;51.654;14.376;2023-07-02T05:47:08;3.13;;;2.77;;
16442;SDS011;8331;51.654;14.376;2023-07-02T05:49:35;2.70;;;2.53;;
16442;SDS011;8331;51.654;14.376;2023-07-02T05:52:01;7.03;;;2.80;;
16442;SDS011;8331;51.654;14.376;2023-07-02T05:54:28;4.33;;;2.50;;
16442;SDS011;8331;51.654;14.376;2023-07-02T05:56:54;2.43;;;2.33;;
16442;SDS011;8331;51.654;14.376;2023-07-02T05:59:21;2.70;;;2.47;;
16442;SDS011;8331;51.654;14.376;2023-07-02T06:01:48;2.87;;;2.67;;
16442;SDS011;8331;51.654;14.376;2023-07-02T06:04:14;2.70;;;2.50;;
16442;SDS011;8331;51.654;14.376;2023-07-02T06:06:41;2.90;;;2.70;;
16442;SDS011;8331;51.654;14.376;2023-07-02T06:09:08;2.80;;;2.60;;
16442;SDS011;8331;51.654;14.376;2023-07-02T06:11:34;2.63;;;2.43;;
16442;SDS011;8331;51.654;14.376;2023-07-02T06:14:01;2.30;;;2.20;;
16442;SDS011;8331;51.654;14.376;2023-07-02T06:16:28;3.20;;;2.67;;
16442;SDS011;8331;51.654;14.376;2023-07-02T06:18:54;2.97;;;2.60;;
16442;SDS011;8331;51.654;14.376;2023-07-02T06:21:21;2.30;;;2.20;;
16442;SDS011;8331;51.654;14.376;2023-07-02T06:23:48;2.33;;;2.23;;
16442;SDS011;8331;51.654;14.376;2023-07-02T06:26:15;2.23;;;2.13;;
16442;SDS011;8331;51.654;14.376;2023-07-02T06:28:42;2.70;;;2.50;;
16442;SDS011;8331;51.654;14.376;2023-07-02T06:31:08;3.70;;;2.43;;
16442;SDS011;8331;51.654;14.376;2023-07-02T06:33:38;2.43;;;2.30;;
16442;SDS011;8331;51.654;14.376;2023-07-02T06:36:05;2.30;;;2.17;;
16442;SDS011;8331;51.654;14.376;2023-07-02T06:38:31;4.50;;;2.40;;
16442;SDS011;8331;51.654;14.376;2023-07-02T06:40:58;2.93;;;2.60;;
16442;SDS011;8331;51.654;14.376;2023-07-02T06:43:25;2.50;;;2.30;;
16442;SDS011;8331;51.654;14.376;2023-07-02T06:45:51;2.73;;;2.63;;
16442;SDS011;8331;51.654;14.376;2023-07-02T06:48:18;2.40;;;2.20;;
16442;SDS011;8331;51.654;14.376;2023-07-02T06:50:47;3.03;;;2.70;;
16442;SDS011;8331;51.654;14.376;2023-07-02T06:53:15;2.83;;;2.60;;
16442;SDS011;8331;51.654;14.376;2023-07-02T06:55:41;2.37;;;2.27;;
16442;SDS011;8331;51.654;14.376;2023-07-02T06:58:08;2.50;;;2.30;;
16442;SDS011;8331;51.654;14.376;2023-07-02T07:00:35;2.47;;;2.27;;
16442;SDS011;8331;51.654;14.376;2023-07-02T07:03:02;2.60;;;2.40;;
16442;SDS011;8331;51.654;14.376;2023-07-02T07:05:30;2.30;;;2.20;;
16442;SDS011;8331;51.654;14.376;2023-07-02T07:07:56;2.60;;;2.40;;
16442;SDS011;8331;51.654;14.376;2023-07-02T07:10:23;2.80;;;2.60;;
16442;SDS011;8331;51.654;14.376;2023-07-02T07:12:50;2.17;;;2.07;;
16442;SDS011;8331;51.654;14.376;2023-07-02T07:15:17;2.50;;;2.40;;
16442;SDS011;8331;51.654;14.376;2023-07-02T07:17:43;2.40;;;2.20;;
16442;SDS011;8331;51.654;14.376;2023-07-02T07:20:10;4.20;;;2.10;;
16442;SDS011;8331;51.654;14.376;2023-07-02T07:22:37;2.20;;;2.10;;
16442;SDS011;8331;51.654;14.376;2023-07-02T07:25:04;2.70;;;2.50;;
16442;SDS011;8331;51.654;14.376;2023-07-02T07:27:31;2.10;;;2.00;;
16442;SDS011;8331;51.654;14.376;2023-07-02T07:29:57;2.37;;;2.07;;
16442;SDS011;8331;51.654;14.376;2023-07-02T07:32:24;2.67;;;2.03;;
16442;SDS011;8331;51.654;14.376;2023-07-02T07:34:51;3.17;;;2.10;;
16442;SDS011;8331;51.654;14.376;2023-07-02T07:37:18;2.43;;;2.23;;
16442;SDS011;8331;51.654;14.376;2023-07-02T07:39:44;2.10;;;2.00;;
16442;SDS011;8331;51.654;14.376;2023-07-02T07:42:11;2.93;;;1.90;;
16442;SDS011;8331;51.654;14.376;2023-07-02T07:44:38;3.00;;;2.30;;
16442;SDS011;8331;51.654;14.376;2023-07-02T07:47:04;2.00;;;1.90;;
16442;SDS011;8331;51.654;14.376;2023-07-02T07:49:31;3.53;;;1.80;;
16442;SDS011;8331;51.654;14.376;2023-07-02T07:51:58;2.33;;;2.13;;
16442;SDS011;8331;51.654;14.376;2023-07-02T07:54:24;2.27;;;2.10;;
16442;SDS011;8331;51.654;14.376;2023-07-02T07:56:51;2.10;;;2.00;;
16442;SDS011;8331;51.654;14.376;2023-07-02T07:59:17;2.70;;;2.10;;
16442;SDS011;8331;51.654;14.376;2023-07-02T08:01:45;2.13;;;2.03;;
16442;SDS011;8331;51.654;14.376;2023-07-02T08:04:13;2.63;;;1.90;;
16442;SDS011;8331;51.654;14.376;2023-07-02T08:06:39;2.60;;;2.03;;
16442;SDS011;8331;51.654;14.376;2023-07-02T08:09:07;2.13;;;2.03;;
16442;SDS011;8331;51.654;14.376;2023-07-02T08:11:35;2.97;;;2.37;;
16442;SDS011;8331;51.654;14.376;2023-07-02T08:14:01;1.90;;;1.80;;
16442;SDS011;8331;51.654;14.376;2023-07-02T08:16:28;2.23;;;1.90;;
16442;SDS011;8331;51.654;14.376;2023-07-02T08:18:55;2.37;;;2.00;;
16442;SDS011;8331;51.654;14.376;2023-07-02T08:21:21;2.23;;;1.97;;
16442;SDS011;8331;51.654;14.376;2023-07-02T08:23:48;2.83;;;2.00;;
16442;SDS011;8331;51.654;14.376;2023-07-02T08:26:15;2.77;;;2.13;;
16442;SDS011;8331;51.654;14.376;2023-07-02T08:28:41;2.17;;;2.07;;
16442;SDS011;8331;51.654;14.376;2023-07-02T08:31:08;2.10;;;2.00;;
16442;SDS011;8331;51.654;14.376;2023-07-02T08:33:34;2.63;;;2.23;;
16442;SDS011;8331;51.654;14.376;2023-07-02T08:36:01;3.47;;;2.27;;
16442;SDS011;8331;51.654;14.376;2023-07-02T08:38:28;1.90;;;1.80;;
16442;SDS011;8331;51.654;14.376;2023-07-02T08:40:55;2.33;;;2.13;;
16442;SDS011;8331;51.654;14.376;2023-07-02T08:43:21;3.53;;;2.20;;
16442;SDS011;8331;51.654;14.376;2023-07-02T08:45:49;2.53;;;2.33;;
16442;SDS011;8331;51.654;14.376;2023-07-02T08:48:16;5.23;;;2.50;;
16442;SDS011;8331;51.654;14.376;2023-07-02T08:50:48;4.23;;;2.30;;
16442;SDS011;8331;51.654;14.376;2023-07-02T08:53:16;2.43;;;2.23;;
16442;SDS011;8331;51.654;14.376;2023-07-02T08:55:42;2.10;;;2.00;;
16442;SDS011;8331;51.654;14.376;2023-07-02T08:58:10;2.43;;;1.90;;
16442;SDS011;8331;51.654;14.376;2023-07-02T09:00:36;2.77;;;1.80;;
16442;SDS011;8331;51.654;14.376;2023-07-02T09:03:13;2.47;;;2.30;;
16442;SDS011;8331;51.654;14.376;2023-07-02T09:06:02;3.53;;;2.23;;
16442;SDS011;8331;51.654;14.376;2023-07-02T09:08:28;1.93;;;1.80;;
16442;SDS011;8331;51.654;14.376;2023-07-02T09:11:14;3.83;;;2.30;;
16442;SDS011;8331;51.654;14.376;2023-07-02T09:13:47;2.30;;;2.20;;
16442;SDS011;8331;51.654;14.376;2023-07-02T09:16:24;2.57;;;1.83;;
16442;SDS011;8331;51.654;14.376;2023-07-02T09:18:55;2.43;;;1.80;;
16442;SDS011;8331;51.654;14.376;2023-07-02T09:21:22;2.50;;;2.30;;
16442;SDS011;8331;51.654;14.376;2023-07-02T09:23:49;7.07;;;2.00;;
16442;SDS011;8331;51.654;14.376;2023-07-02T09:26:19;3.20;;;2.10;;
16442;SDS011;8331;51.654;14.376;2023-07-02T09:28:45;2.20;;;2.10;;
16442;SDS011;8331;51.654;14.376;2023-07-02T09:31:15;3.60;;;2.10;;
16442;SDS011;8331;51.654;14.376;2023-07-02T09:33:42;3.70;;;2.00;;
16442;SDS011;8331;51.654;14.376;2023-07-02T09:36:09;2.40;;;2.10;;
16442;SDS011;8331;51.654;14.376;2023-07-02T09:38:36;1.80;;;1.70;;
16442;SDS011;8331;51.654;14.376;2023-07-02T09:41:03;2.20;;;2.00;;
16442;SDS011;8331;51.654;14.376;2023-07-02T09:43:29;3.57;;;2.10;;
16442;SDS011;8331;51.654;14.376;2023-07-02T09:45:57;1.93;;;1.83;;
16442;SDS011;8331;51.654;14.376;2023-07-02T09:48:24;3.70;;;2.10;;
16442;SDS011;8331;51.654;14.376;2023-07-02T09:50:54;2.00;;;1.90;;
16442;SDS011;8331;51.654;14.376;2023-07-02T09:53:20;1.90;;;1.80;;
16442;SDS011;8331;51.654;14.376;2023-07-02T09:55:47;2.10;;;2.00;;
16442;SDS011;8331;51.654;14.376;2023-07-02T09:58:14;2.33;;;1.93;;
16442;SDS011;8331;51.654;14.376;2023-07-02T10:00:41;2.70;;;2.00;;
16442;SDS011;8331;51.654;14.376;2023-07-02T10:03:08;2.03;;;1.90;;
16442;SDS011;8331;51.654;14.376;2023-07-02T10:05:35;2.30;;;2.10;;
16442;SDS011;8331;51.654;14.376;2023-07-02T10:08:12;1.90;;;1.80;;
16442;SDS011;8331;51.654;14.376;2023-07-02T10:10:39;2.63;;;2.27;;
16442;SDS011;8331;51.654;14.376;2023-07-02T10:13:06;3.93;;;2.07;;
16442;SDS011;8331;51.654;14.376;2023-07-02T10:15:33;2.63;;;2.20;;
16442;SDS011;8331;51.654;14.376;2023-07-02T10:18:04;2.57;;;2.37;;
16442;SDS011;8331;51.654;14.376;2023-07-02T10:20:31;2.47;;;2.17;;
16442;SDS011;8331;51.654;14.376;2023-07-02T10:22:59;2.03;;;1.93;;
16442;SDS011;8331;51.654;14.376;2023-07-02T10:25:26;2.20;;;2.07;;
16442;SDS011;8331;51.654;14.376;2023-07-02T10:27:53;2.53;;;2.10;;
16442;SDS011;8331;51.654;14.376;2023-07-02T10:30:29;3.10;;;2.13;;
16442;SDS011;8331;51.654;14.376;2023-07-02T10:33:06;2.57;;;2.23;;
16442;SDS011;8331;51.654;14.376;2023-07-02T10:35:33;3.20;;;2.43;;
16442;SDS011;8331;51.654;14.376;2023-07-02T10:38:01;2.30;;;2.20;;
16442;SDS011;8331;51.654;14.376;2023-07-02T10:40:27;2.47;;;1.87;;
16442;SDS011;8331;51.654;14.376;2023-07-02T10:42:55;2.70;;;2.40;;
16442;SDS011;8331;51.654;14.376;2023-07-02T10:45:30;3.37;;;2.17;;
16442;SDS011;8331;51.654;14.376;2023-07-02T10:47:57;2.40;;;2.10;;
16442;SDS011;8331;51.654;14.376;2023-07-02T10:50:23;3.03;;;2.30;;
16442;SDS011;8331;51.654;14.376;2023-07-02T10:52:50;2.47;;;2.30;;
16442;SDS011;8331;51.654;14.376;2023-07-02T10:55:24;2.97;;;2.23;;
16442;SDS011;8331;51.654;14.376;2023-07-02T10:58:01;2.40;;;2.20;;
16442;SDS011;8331;51.654;14.376;2023-07-02T11:00:29;3.33;;;2.50;;
16442;SDS011;8331;51.654;14.376;2023-07-02T11:02:55;2.80;;;2.60;;
16442;SDS011;8331;51.654;14.376;2023-07-02T11:05:22;4.03;;;3.10;;
16442;SDS011;8331;51.654;14.376;2023-07-02T11:07:49;4.60;;;3.37;;
16442;SDS011;8331;51.654;14.376;2023-07-02T11:10:23;8.27;;;3.93;;
16442;SDS011;8331;51.654;14.376;2023-07-02T11:12:50;4.27;;;3.80;;
16442;SDS011;8331;51.654;14.376;2023-07-02T11:15:17;6.47;;;4.80;;
16442;SDS011;8331;51.654;14.376;2023-07-02T11:17:46;4.70;;;4.30;;
16442;SDS011;8331;51.654;14.376;2023-07-02T11:20:13;6.07;;;4.70;;
16442;SDS011;8331;51.654;14.376;2023-07-02T11:22:41;5.70;;;5.07;;
16442;SDS011;8331;51.654;14.376;2023-07-02T11:25:17;6.60;;;4.93;;
16442;SDS011;8331;51.654;14.376;2023-07-02T11:27:44;5.60;;;5.07;;
16442;SDS011;8331;51.654;14.376;2023-07-02T11:30:11;6.00;;;4.80;;
16442;SDS011;8331;51.654;14.376;2023-07-02T11:32:51;11.07;;;5.37;;
16442;SDS011;8331;51.654;14.376;2023-07-02T11:35:18;6.73;;;4.97;;
16442;SDS011;8331;51.654;14.376;2023-07-02T11:37:45;6.17;;;5.50;;
16442;SDS011;8331;51.654;14.376;2023-07-02T11:40:12;7.07;;;5.27;;
16442;SDS011;8331;51.654;14.376;2023-07-02T11:42:40;8.40;;;5.03;;
16442;SDS011;8331;51.654;14.376;2023-07-02T11:45:07;6.50;;;5.07;;
16442;SDS011;8331;51.654;14.376;2023-07-02T11:47:33;7.30;;;5.50;;
16442;SDS011;8331;51.654;14.376;2023-07-02T11:50:00;7.57;;;5.37;;
16442;SDS011;8331;51.654;14.376;2023-07-02T11:52:46;7.43;;;4.97;;
16442;SDS011;8331;51.654;14.376;2023-07-02T11:55:13;6.10;;;5.43;;
16442;SDS011;8331;51.654;14.376;2023-07-02T11:57:40;8.80;;;5.43;;
16442;SDS011;8331;51.654;14.376;2023-07-02T12:00:07;7.07;;;4.97;;
16442;SDS011;8331;51.654;14.376;2023-07-02T12:02:33;6.03;;;5.43;;
16442;SDS011;8331;51.654;14.376;2023-07-02T12:05:00;8.33;;;5.47;;
16442;SDS011;8331;51.654;14.376;2023-07-02T12:07:31;8.80;;;5.10;;
16442;SDS011;8331;51.654;14.376;2023-07-02T12:09:57;5.40;;;4.53;;
16442;SDS011;8331;51.654;14.376;2023-07-02T12:12:24;5.83;;;4.80;;
16442;SDS011;8331;51.654;14.376;2023-07-02T12:14:51;5.83;;;4.67;;
16442;SDS011;8331;51.654;14.376;2023-07-02T12:17:17;5.53;;;5.03;;
16442;SDS011;8331;51.654;14.376;2023-07-02T12:19:44;8.03;;;5.20;;
16442;SDS011;8331;51.654;14.376;2023-07-02T12:22:11;6.90;;;4.77;;
16442;SDS011;8331;51.654;14.376;2023-07-02T12:24:37;8.67;;;5.20;;
16442;SDS011;8331;51.654;14.376;2023-07-02T12:27:04;5.13;;;4.63;;
16442;SDS011;8331;51.654;14.376;2023-07-02T12:29:31;5.93;;;5.33;;
16442;SDS011;8331;51.654;14.376;2023-07-02T12:31:57;6.43;;;4.93;;
16442;SDS011;8331;51.654;14.376;2023-07-02T12:34:24;6.33;;;5.50;;
16442;SDS011;8331;51.654;14.376;2023-07-02T12:36:51;6.00;;;4.70;;
16442;SDS011;8331;51.654;14.376;2023-07-02T12:39:17;5.33;;;4.80;;
16442;SDS011;8331;51.654;14.376;2023-07-02T12:41:46;6.30;;;4.93;;
16442;SDS011;8331;51.654;14.376;2023-07-02T12:44:13;6.17;;;4.83;;
16442;SDS011;8331;51.654;14.376;2023-07-02T12:46:40;8.67;;;4.97;;
16442;SDS011;8331;51.654;14.376;2023-07-02T12:49:09;5.93;;;4.77;;
16442;SDS011;8331;51.654;14.376;2023-07-02T12:51:35;5.67;;;5.07;;
16442;SDS011;8331;51.654;14.376;2023-07-02T12:54:02;7.20;;;5.10;;
16442;SDS011;8331;51.654;14.376;2023-07-02T12:56:29;5.83;;;5.33;;
16442;SDS011;8331;51.654;14.376;2023-07-02T12:58:55;5.73;;;5.10;;
16442;SDS011;8331;51.654;14.376;2023-07-02T13:01:22;5.33;;;4.83;;
16442;SDS011;8331;51.654;14.376;2023-07-02T13:03:50;8.43;;;5.43;;
16442;SDS011;8331;51.654;14.376;2023-07-02T13:06:17;5.50;;;4.80;;
16442;SDS011;8331;51.654;14.376;2023-07-02T13:08:43;7.67;;;5.43;;
16442;SDS011;8331;51.654;14.376;2023-07-02T13:11:10;6.57;;;5.30;;
16442;SDS011;8331;51.654;14.376;2023-07-02T13:13:37;6.33;;;5.10;;
16442;SDS011;8331;51.654;14.376;2023-07-02T13:16:03;6.07;;;5.47;;
16442;SDS011;8331;51.654;14.376;2023-07-02T13:18:30;5.50;;;5.00;;
16442;SDS011;8331;51.654;14.376;2023-07-02T13:20:57;7.40;;;5.13;;
16442;SDS011;8331;51.654;14.376;2023-07-02T13:23:23;6.10;;;5.03;;
16442;SDS011;8331;51.654;14.376;2023-07-02T13:25:50;5.93;;;4.77;;
16442;SDS011;8331;51.654;14.376;2023-07-02T13:28:17;8.03;;;5.07;;
16442;SDS011;8331;51.654;14.376;2023-07-02T13:30:43;9.07;;;5.10;;
16442;SDS011;8331;51.654;14.376;2023-07-02T13:33:10;5.80;;;5.30;;
16442;SDS011;8331;51.654;14.376;2023-07-02T13:35:37;6.13;;;5.33;;
16442;SDS011;8331;51.654;14.376;2023-07-02T13:38:04;8.00;;;5.10;;
16442;SDS011;8331;51.654;14.376;2023-07-02T13:40:31;6.93;;;4.77;;
16442;SDS011;8331;51.654;14.376;2023-07-02T13:42:58;8.90;;;7.07;;
16442;SDS011;8331;51.654;14.376;2023-07-02T13:45:25;8.47;;;7.67;;
16442;SDS011;8331;51.654;14.376;2023-07-02T13:47:51;10.70;;;7.50;;
16442;SDS011;8331;51.654;14.376;2023-07-02T13:50:18;6.80;;;6.20;;
16442;SDS011;8331;51.654;14.376;2023-07-02T13:52:45;6.80;;;5.63;;
16442;SDS011;8331;51.654;14.376;2023-07-02T13:55:12;7.23;;;5.93;;
16442;SDS011;8331;51.654;14.376;2023-07-02T13:57:39;7.40;;;6.23;;
16442;SDS011;8331;51.654;14.376;2023-07-02T14:00:06;6.20;;;5.60;;
16442;SDS011;8331;51.654;14.376;2023-07-02T14:02:34;5.67;;;5.07;;
16442;SDS011;8331;51.654;14.376;2023-07-02T14:05:01;8.20;;;6.03;;
16442;SDS011;8331;51.654;14.376;2023-07-02T14:07:28;9.80;;;6.03;;
16442;SDS011;8331;51.654;14.376;2023-07-02T14:09:54;7.60;;;5.73;;
16442;SDS011;8331;51.654;14.376;2023-07-02T14:12:21;8.57;;;6.20;;
16442;SDS011;8331;51.654;14.376;2023-07-02T14:14:48;7.80;;;5.80;;
16442;SDS011;8331;51.654;14.376;2023-07-02T14:17:15;6.23;;;5.67;;
16442;SDS011;8331;51.654;14.376;2023-07-02T14:19:42;11.80;;;5.87;;
16442;SDS011;8331;51.654;14.376;2023-07-02T14:22:09;8.30;;;5.70;;
16442;SDS011;8331;51.654;14.376;2023-07-02T14:24:36;6.60;;;5.70;;
16442;SDS011;8331;51.654;14.376;2023-07-02T14:27:03;10.97;;;6.03;;
16442;SDS011;8331;51.654;14.376;2023-07-02T14:29:29;7.07;;;5.67;;
16442;SDS011;8331;51.654;14.376;2023-07-02T14:31:56;6.80;;;5.57;;
16442;SDS011;8331;51.654;14.376;2023-07-02T14:34:23;7.23;;;5.83;;
16442;SDS011;8331;51.654;14.376;2023-07-02T14:36:49;5.90;;;5.17;;
16442;SDS011;8331;51.654;14.376;2023-07-02T14:39:16;8.73;;;5.67;;
16442;SDS011;8331;51.654;14.376;2023-07-02T14:41:43;7.80;;;5.47;;
16442;SDS011;8331;51.654;14.376;2023-07-02T14:44:09;8.43;;;5.80;;
16442;SDS011;8331;51.654;14.376;2023-07-02T14:46:36;5.80;;;5.37;;
16442;SDS011;8331;51.654;14.376;2023-07-02T14:49:03;6.37;;;5.63;;
16442;SDS011;8331;51.654;14.376;2023-07-02T14:51:29;8.17;;;6.00;;